createdAt,value
2018-11-10T00:00:35.994Z,252.37
2018-11-10T00:03:04.270Z,247.03
2018-11-10T00:05:31.598Z,231.77
2018-11-10T00:07:59.074Z,238.73
2018-11-10T00:10:32.458Z,241.57
2018-11-10T00:12:59.857Z,250.83
2018-11-10T00:15:27.141Z,254.37
2018-11-10T00:17:54.426Z,235.23
2018-11-10T00:20:21.764Z,250.97
2018-11-10T00:22:49.103Z,257.60
2018-11-10T00:25:16.429Z,228.30
2018-11-10T00:27:44.762Z,234.87
2018-11-10T00:30:14.044Z,242.30
2018-11-10T00:32:41.909Z,239.90
2018-11-10T00:35:09.306Z,246.03
2018-11-10T00:37:36.834Z,250.73
2018-11-10T00:40:05.037Z,243.43
2018-11-10T00:42:32.954Z,249.17
2018-11-10T00:45:00.253Z,243.53
2018-11-10T00:47:27.544Z,244.93
2018-11-10T00:49:55.139Z,254.37
2018-11-10T00:52:22.443Z,229.70
2018-11-10T00:54:49.748Z,234.20
2018-11-10T00:57:17.091Z,240.77
2018-11-10T00:59:44.356Z,231.60
2018-11-10T01:02:11.906Z,236.90
2018-11-10T01:04:39.881Z,236.60
2018-11-10T01:07:07.202Z,239.97
2018-11-10T01:09:34.535Z,229.60
2018-11-10T01:12:02.173Z,235.70
2018-11-10T01:14:29.502Z,221.17
2018-11-10T01:16:56.861Z,229.40
2018-11-10T01:19:24.146Z,228.67
2018-11-10T01:22:14.713Z,189.03
2018-11-10T01:24:43.493Z,228.20
2018-11-10T01:27:10.899Z,237.63
2018-11-10T01:29:38.324Z,231.57
2018-11-10T01:32:05.835Z,234.30
2018-11-10T01:34:33.221Z,227.97
2018-11-10T01:37:00.522Z,230.10
2018-11-10T01:39:27.845Z,226.93
2018-11-10T01:41:55.170Z,230.30
2018-11-10T01:44:22.567Z,236.93
2018-11-10T01:46:49.934Z,229.50
2018-11-10T01:49:17.362Z,225.30
2018-11-10T01:51:44.663Z,238.07
2018-11-10T01:54:12.229Z,231.73
2018-11-10T01:56:39.620Z,234.47
2018-11-10T01:59:06.916Z,233.20
2018-11-10T02:01:34.193Z,239.87
2018-11-10T02:04:01.798Z,240.47
2018-11-10T02:06:29.111Z,236.07
2018-11-10T02:08:56.437Z,245.37
2018-11-10T02:11:23.888Z,239.90
2018-11-10T02:13:51.182Z,242.13
2018-11-10T02:16:18.543Z,239.63
2018-11-10T02:18:46.107Z,247.60
2018-11-10T02:21:13.423Z,238.00
2018-11-10T02:23:40.734Z,257.37
2018-11-10T02:26:08.021Z,242.90
2018-11-10T02:28:35.332Z,238.03
2018-11-10T02:31:02.646Z,236.40
2018-11-10T02:33:29.968Z,234.80
2018-11-10T02:35:57.249Z,229.40
2018-11-10T02:38:24.706Z,245.70
2018-11-10T02:40:52.363Z,223.30
2018-11-10T02:43:19.672Z,243.30
2018-11-10T02:45:46.994Z,230.00
2018-11-10T02:48:14.281Z,235.20
2018-11-10T02:50:41.597Z,219.53
2018-11-10T02:53:08.931Z,232.33
2018-11-10T02:55:36.276Z,226.60
2018-11-10T02:58:03.601Z,233.33
2018-11-10T03:00:30.955Z,219.53
2018-11-10T03:02:58.478Z,238.33
2018-11-10T03:08:07.782Z,242.73
2018-11-10T03:10:36.059Z,217.43
2018-11-10T03:13:03.504Z,232.93
2018-11-10T03:15:30.992Z,224.33
2018-11-10T03:17:58.297Z,227.87
2018-11-10T03:20:25.585Z,215.00
2018-11-10T03:22:52.923Z,219.03
2018-11-10T03:25:20.258Z,224.00
2018-11-10T03:27:47.559Z,230.03
2018-11-10T03:30:14.971Z,220.33
2018-11-10T03:32:42.297Z,225.80
2018-11-10T03:35:09.969Z,223.93
2018-11-10T03:37:37.594Z,221.10
2018-11-10T03:40:06.459Z,219.87
2018-11-10T03:42:33.741Z,220.87
2018-11-10T03:45:01.246Z,210.23
2018-11-10T03:47:28.562Z,215.43
2018-11-10T03:49:55.857Z,223.23
2018-11-10T03:52:23.185Z,214.60
2018-11-10T03:54:50.478Z,215.27
2018-11-10T03:57:17.803Z,220.10
2018-11-10T03:59:45.135Z,209.97
2018-11-10T04:02:12.444Z,215.77
2018-11-10T04:04:39.733Z,215.27
2018-11-10T04:07:07.090Z,219.50
2018-11-10T04:09:34.426Z,219.07
2018-11-10T04:12:01.807Z,210.07
2018-11-10T04:14:29.195Z,216.10
2018-11-10T04:16:56.489Z,216.90
2018-11-10T04:19:23.838Z,210.90
2018-11-10T04:21:51.238Z,218.03
2018-11-10T04:24:18.515Z,212.07
2018-11-10T04:26:45.842Z,229.40
2018-11-10T04:29:13.479Z,213.30
2018-11-10T04:31:40.775Z,214.93
2018-11-10T04:34:08.069Z,215.37
2018-11-10T04:36:35.391Z,216.17
2018-11-10T04:39:03.401Z,207.47
2018-11-10T04:41:30.718Z,207.73
2018-11-10T04:43:58.102Z,204.60
2018-11-10T04:46:25.405Z,209.77
2018-11-10T04:48:52.806Z,208.43
2018-11-10T04:51:20.151Z,208.83
2018-11-10T04:53:47.493Z,216.70
2018-11-10T04:56:14.802Z,216.70
2018-11-10T04:58:42.912Z,222.87
2018-11-10T05:01:10.524Z,212.70
2018-11-10T05:03:38.115Z,226.33
2018-11-10T05:06:05.445Z,223.47
2018-11-10T05:08:32.804Z,222.03
2018-11-10T05:11:00.137Z,206.40
2018-11-10T05:13:27.446Z,238.77
2018-11-10T05:15:54.783Z,207.60
2018-11-10T05:18:22.109Z,220.30
2018-11-10T05:20:49.569Z,215.27
2018-11-10T05:23:16.898Z,226.10
2018-11-10T05:25:44.243Z,210.57
2018-11-10T05:28:11.710Z,240.00
2018-11-10T05:30:39.038Z,208.97
2018-11-10T05:33:06.411Z,224.20
2018-11-10T05:35:33.763Z,212.03
2018-11-10T05:38:01.146Z,226.83
2018-11-10T05:40:28.454Z,220.23
2018-11-10T05:42:55.891Z,209.83
2018-11-10T05:45:23.492Z,216.63
2018-11-10T05:47:50.903Z,213.27
2018-11-10T05:50:18.276Z,209.00
2018-11-10T05:52:45.642Z,201.37
2018-11-10T05:55:12.966Z,207.13
2018-11-10T05:57:40.253Z,210.17
2018-11-10T06:00:09.101Z,201.67
2018-11-10T06:02:36.385Z,189.13
2018-11-10T06:05:04.103Z,196.77
2018-11-10T06:07:31.535Z,191.57
2018-11-10T06:09:58.871Z,191.03
2018-11-10T06:12:26.386Z,201.00
2018-11-10T06:14:53.700Z,196.37
2018-11-10T06:17:21.067Z,204.20
2018-11-10T06:19:48.604Z,198.27
2018-11-10T06:22:15.954Z,200.73
2018-11-10T06:24:43.274Z,188.30
2018-11-10T06:27:10.587Z,199.63
2018-11-10T06:29:38.065Z,199.53
2018-11-10T06:32:05.357Z,189.80
2018-11-10T06:34:33.301Z,192.90
2018-11-10T06:37:00.720Z,197.23
2018-11-10T06:39:28.177Z,201.33
2018-11-10T06:41:55.479Z,191.97
2018-11-10T06:44:22.957Z,191.53
2018-11-10T06:46:50.686Z,204.53
2018-11-10T06:49:18.020Z,195.87
2018-11-10T06:51:45.422Z,198.67
2018-11-10T06:54:13.113Z,199.47
2018-11-10T06:56:40.507Z,204.00
2018-11-10T06:59:08.959Z,202.27
2018-11-10T07:01:36.269Z,199.07
2018-11-10T07:04:03.660Z,194.70
2018-11-10T07:06:31.129Z,197.83
2018-11-10T07:08:58.525Z,208.43
2018-11-10T07:11:26.737Z,197.13
2018-11-10T07:13:54.136Z,213.43
2018-11-10T07:16:21.486Z,190.70
2018-11-10T07:18:58.083Z,208.40
2018-11-10T07:21:28.813Z,188.53
2018-11-10T07:23:56.114Z,201.17
2018-11-10T07:26:23.850Z,197.17
2018-11-10T07:28:51.220Z,211.10
2018-11-10T07:31:18.557Z,201.70
2018-11-10T07:33:46.181Z,208.67
2018-11-10T07:36:13.943Z,193.33
2018-11-10T07:38:41.307Z,206.97
2018-11-10T07:41:08.677Z,198.60
2018-11-10T07:43:36.158Z,208.43
2018-11-10T07:46:03.567Z,191.07
2018-11-10T07:48:31.253Z,202.57
2018-11-10T07:50:58.586Z,195.70
2018-11-10T07:53:25.932Z,214.50
2018-11-10T07:55:53.445Z,194.97
2018-11-10T07:58:20.755Z,200.73
2018-11-10T08:00:48.062Z,184.77
2018-11-10T08:03:15.550Z,196.37
2018-11-10T08:05:42.903Z,180.87
2018-11-10T08:08:10.260Z,191.10
2018-11-10T08:10:41.679Z,181.20
2018-11-10T08:13:09.027Z,193.27
2018-11-10T08:15:36.489Z,179.33
2018-11-10T08:18:04.106Z,186.37
2018-11-10T08:20:31.441Z,188.63
2018-11-10T08:22:58.762Z,191.23
2018-11-10T08:25:26.065Z,178.60
2018-11-10T08:27:53.398Z,188.30
2018-11-10T08:30:20.779Z,186.53
2018-11-10T08:32:48.105Z,182.97
2018-11-10T08:35:15.394Z,193.50
2018-11-10T08:37:42.798Z,191.27
2018-11-10T08:40:14.730Z,188.73
2018-11-10T08:42:42.055Z,179.93
2018-11-10T08:45:10.972Z,210.20
2018-11-10T08:47:38.502Z,188.10
2018-11-10T08:50:06.689Z,183.70
2018-11-10T08:52:34.075Z,185.90
2018-11-10T08:55:01.473Z,185.83
2018-11-10T08:57:28.874Z,191.40
2018-11-10T08:59:56.238Z,179.43
2018-11-10T09:02:23.622Z,186.60
2018-11-10T09:04:50.918Z,189.33
2018-11-10T09:07:18.239Z,184.00
2018-11-10T09:09:45.632Z,183.93
2018-11-10T09:12:12.938Z,185.37
2018-11-10T09:14:40.314Z,183.93
2018-11-10T09:17:07.762Z,185.73
2018-11-10T09:19:35.169Z,182.00
2018-11-10T09:22:02.478Z,180.37
2018-11-10T09:24:29.857Z,188.57
2018-11-10T09:26:57.355Z,189.07
2018-11-10T09:29:24.917Z,185.90
2018-11-10T09:31:52.259Z,196.27
2018-11-10T09:34:19.686Z,187.60
2018-11-10T09:36:47.193Z,197.20
2018-11-10T09:39:14.586Z,200.53
2018-11-10T09:41:41.930Z,196.00
2018-11-10T09:44:09.330Z,198.03
2018-11-10T09:46:36.741Z,198.47
2018-11-10T09:49:05.202Z,202.07
2018-11-10T09:51:32.577Z,208.50
2018-11-10T09:54:00.039Z,206.63
2018-11-10T09:56:27.882Z,207.47
2018-11-10T09:58:55.274Z,213.33
2018-11-10T10:01:22.855Z,207.63
2018-11-10T10:03:50.106Z,221.93
2018-11-10T10:06:21.227Z,219.43
2018-11-10T10:08:49.179Z,234.67
2018-11-10T10:11:16.623Z,212.80
2018-11-10T10:13:44.273Z,221.77
2018-11-10T10:16:11.880Z,213.80
2018-11-10T10:18:39.090Z,226.00
2018-11-10T10:21:06.438Z,213.80
2018-11-10T10:23:33.796Z,229.67
2018-11-10T10:26:01.102Z,216.20
2018-11-10T10:28:28.576Z,220.33
2018-11-10T10:30:55.919Z,210.73
2018-11-10T10:33:23.326Z,209.30
2018-11-10T10:35:54.034Z,196.20
2018-11-10T10:38:21.455Z,213.60
2018-11-10T10:40:48.997Z,197.60
2018-11-10T10:43:16.379Z,214.23
2018-11-10T10:45:43.686Z,203.07
2018-11-10T10:48:11.011Z,187.90
2018-11-10T10:50:38.381Z,190.80
2018-11-10T10:53:05.686Z,199.10
2018-11-10T10:55:34.263Z,194.50
2018-11-10T10:58:08.118Z,206.87
2018-11-10T11:00:41.434Z,190.70
2018-11-10T11:03:15.396Z,209.73
2018-11-10T11:05:48.349Z,197.37
2018-11-10T11:08:15.747Z,216.47
2018-11-10T11:10:44.875Z,209.87
2018-11-10T11:13:17.929Z,215.97
2018-11-10T11:15:48.204Z,207.97
2018-11-10T11:18:16.857Z,210.87
2018-11-10T11:20:44.603Z,196.50
2018-11-10T11:49:53.223Z,221.33
2018-11-10T11:52:20.782Z,207.47
2018-11-10T11:54:50.456Z,181.37
2018-11-10T11:57:22.260Z,204.83
2018-11-10T11:59:52.266Z,197.50
2018-11-10T12:02:27.477Z,186.83
2018-11-10T12:04:55.558Z,175.60
2018-11-10T12:07:22.905Z,190.10
2018-11-10T12:09:50.273Z,184.73
2018-11-10T12:12:18.855Z,175.53
2018-11-10T12:14:47.634Z,195.37
2018-11-10T12:17:18.512Z,185.80
2018-11-10T12:19:47.639Z,186.83
2018-11-10T12:22:15.461Z,184.63
2018-11-10T12:24:43.562Z,193.10
2018-11-10T12:27:10.942Z,184.30
2018-11-10T12:29:50.138Z,180.97
2018-11-10T12:32:19.641Z,180.63
2018-11-10T12:34:48.564Z,193.03
2018-11-10T12:37:23.075Z,190.50
2018-11-10T12:39:50.510Z,182.33
2018-11-10T12:42:17.910Z,191.13
2018-11-10T12:44:45.498Z,183.77
2018-11-10T12:47:12.830Z,176.23
2018-11-10T12:49:40.310Z,183.60
2018-11-10T12:52:07.670Z,182.27
2018-11-10T12:54:35.139Z,181.27
2018-11-10T12:57:02.774Z,186.43
2018-11-10T12:59:30.388Z,190.67
2018-11-10T13:01:57.902Z,189.40
2018-11-10T13:07:04.602Z,189.57
2018-11-10T13:09:32.167Z,186.83
2018-11-10T13:11:59.937Z,196.60
2018-11-10T13:14:27.443Z,189.67
2018-11-10T13:16:55.314Z,195.63
2018-11-10T13:19:22.773Z,199.10
2018-11-10T13:21:50.235Z,189.60
2018-11-10T13:24:17.676Z,188.13
2018-11-10T13:29:28.386Z,176.07
2018-11-10T13:31:55.774Z,179.83
2018-11-10T13:34:23.114Z,173.13
2018-11-10T13:36:50.525Z,169.47
2018-11-10T13:39:18.231Z,179.20
2018-11-10T13:41:46.245Z,167.23
2018-11-10T13:44:13.760Z,166.57
2018-11-10T13:46:41.023Z,157.43
2018-11-10T13:49:08.374Z,162.93
2018-11-10T13:51:35.847Z,156.20
2018-11-10T13:54:03.163Z,169.40
2018-11-10T13:56:30.486Z,164.03
2018-11-10T13:58:57.891Z,172.50
2018-11-10T14:01:25.267Z,179.13
2018-11-10T14:03:52.623Z,185.10
2018-11-10T14:06:20.226Z,165.30
2018-11-10T14:08:47.589Z,171.60
2018-11-10T14:11:14.928Z,168.93
2018-11-10T14:13:42.301Z,169.73
2018-11-10T14:16:09.650Z,165.07
2018-11-10T14:18:36.984Z,170.17
2018-11-10T14:21:04.438Z,166.77
2018-11-10T14:23:31.863Z,179.33
2018-11-10T14:25:59.326Z,167.93
2018-11-10T14:28:26.629Z,175.83
2018-11-10T14:30:53.987Z,177.77
2018-11-10T14:33:21.405Z,184.47
2018-11-10T14:35:48.810Z,172.97
2018-11-10T14:38:16.149Z,183.67
2018-11-10T14:40:43.468Z,165.27
2018-11-10T14:43:10.994Z,184.77
2018-11-10T14:45:38.530Z,178.87
2018-11-10T14:48:05.897Z,188.97
2018-11-10T14:50:33.293Z,172.70
2018-11-10T14:53:00.878Z,186.93
2018-11-10T14:55:28.045Z,169.80
2018-11-10T14:57:55.408Z,181.00
2018-11-10T15:00:25.810Z,180.23
2018-11-10T15:02:53.187Z,173.60
2018-11-10T15:05:20.592Z,175.77
2018-11-10T15:07:48.045Z,177.40
2018-11-10T15:10:16.566Z,170.33
2018-11-10T15:12:44.572Z,171.70
2018-11-10T15:15:13.010Z,180.17
2018-11-10T15:17:41.061Z,184.77
2018-11-10T15:20:10.083Z,173.87
2018-11-10T15:22:37.769Z,179.77
2018-11-10T15:25:09.791Z,174.87
2018-11-10T15:27:37.887Z,170.20
2018-11-10T15:30:08.501Z,182.40
2018-11-10T15:32:35.862Z,174.73
2018-11-10T15:35:04.762Z,188.77
2018-11-10T15:37:32.212Z,178.07
2018-11-10T15:40:01.535Z,178.07
2018-11-10T15:42:29.958Z,195.07
2018-11-10T15:44:58.501Z,201.17
2018-11-10T15:47:28.934Z,187.00
2018-11-10T15:49:57.641Z,182.57
2018-11-10T15:52:27.031Z,182.53
2018-11-10T15:54:54.654Z,185.27
2018-11-10T15:57:22.025Z,182.23
2018-11-10T15:59:51.705Z,176.53
2018-11-10T16:02:20.966Z,176.47
2018-11-10T16:04:48.305Z,182.90
2018-11-10T16:07:15.817Z,176.50
2018-11-10T16:09:44.312Z,167.83
2018-11-10T16:12:11.923Z,186.20
2018-11-10T16:14:40.301Z,188.67
2018-11-10T16:17:07.794Z,179.83
2018-11-10T16:19:35.848Z,190.63
2018-11-10T16:22:04.279Z,180.80
2018-11-10T16:24:31.820Z,174.80
2018-11-10T16:26:59.394Z,176.17
2018-11-10T16:29:27.420Z,187.77
2018-11-10T16:31:54.745Z,175.60
2018-11-10T16:34:22.141Z,182.40
2018-11-10T16:36:49.553Z,183.83
2018-11-10T16:39:17.015Z,195.37
2018-11-10T16:41:44.420Z,188.97
2018-11-10T16:44:11.974Z,183.53
2018-11-10T16:46:39.281Z,174.23
2018-11-10T16:49:06.690Z,184.10
2018-11-10T16:51:34.273Z,173.20
2018-11-10T16:54:02.242Z,181.10
2018-11-10T16:56:30.933Z,189.83
2018-11-10T16:59:01.635Z,188.73
2018-11-10T17:01:29.253Z,184.17
2018-11-10T17:03:57.672Z,191.60
2018-11-10T17:06:28.402Z,190.10
2018-11-10T17:08:56.093Z,189.43
2018-11-10T17:11:23.447Z,194.97
2018-11-10T17:13:50.854Z,198.20
2018-11-10T17:16:18.202Z,191.83
2018-11-10T17:18:46.002Z,197.43
2018-11-10T17:21:13.557Z,216.70
2018-11-10T17:23:40.983Z,218.33
2018-11-10T17:26:08.700Z,197.87
2018-11-10T17:28:36.231Z,232.40
2018-11-10T17:31:04.099Z,196.23
2018-11-10T17:33:31.918Z,199.13
2018-11-10T17:35:59.270Z,201.13
2018-11-10T17:38:26.803Z,197.23
2018-11-10T17:41:03.381Z,183.93
2018-11-10T17:43:31.846Z,207.90
2018-11-10T17:46:01.139Z,218.63
2018-11-10T17:48:28.786Z,209.93
2018-11-10T17:50:59.957Z,228.30
2018-11-10T17:53:27.270Z,224.93
2018-11-10T17:55:54.609Z,226.93
2018-11-10T18:01:03.846Z,274.53
2018-11-10T18:03:31.556Z,277.33
2018-11-10T18:05:58.989Z,256.83
2018-11-10T18:08:26.460Z,254.77
2018-11-10T18:10:54.079Z,243.77
2018-11-10T18:13:22.078Z,269.93
2018-11-10T18:15:49.605Z,260.33
2018-11-10T18:18:17.495Z,286.60
2018-11-10T18:20:44.922Z,260.67
2018-11-10T18:23:12.917Z,277.90
2018-11-10T18:25:40.383Z,251.57
2018-11-10T18:28:07.910Z,254.87
2018-11-10T18:30:35.286Z,277.03
2018-11-10T18:33:02.994Z,274.83
2018-11-10T18:35:30.502Z,261.63
2018-11-10T18:37:57.911Z,298.10
2018-11-10T18:40:25.310Z,271.87
2018-11-10T18:42:52.758Z,266.07
2018-11-10T18:45:20.234Z,297.23
2018-11-10T18:47:47.705Z,277.40
2018-11-10T18:50:16.081Z,250.80
2018-11-10T18:52:44.222Z,252.27
2018-11-10T18:55:13.105Z,269.17
2018-11-10T18:57:41.348Z,280.80
2018-11-10T19:00:11.090Z,267.13
2018-11-10T19:02:39.325Z,272.90
2018-11-10T19:05:08.985Z,273.30
2018-11-10T19:07:36.875Z,248.93
2018-11-10T19:10:05.951Z,251.43
2018-11-10T19:12:33.973Z,257.67
2018-11-10T19:15:02.147Z,289.20
2018-11-10T19:17:29.714Z,277.87
2018-11-10T19:19:57.330Z,285.60
2018-11-10T19:22:24.760Z,302.03
2018-11-10T19:24:52.623Z,306.93
2018-11-10T19:27:20.666Z,289.37
2018-11-10T19:29:48.190Z,308.93
2018-11-10T19:32:19.624Z,329.00
2018-11-10T19:34:49.679Z,320.00
2018-11-10T19:37:21.196Z,350.67
2018-11-10T19:39:48.986Z,305.17
2018-11-10T19:42:16.322Z,319.90
2018-11-10T19:44:44.669Z,304.13
2018-11-10T19:47:12.346Z,288.67
2018-11-10T19:49:39.754Z,294.83
2018-11-10T19:52:07.443Z,285.10
2018-11-10T19:54:38.306Z,311.77
2018-11-10T19:57:05.601Z,299.90
2018-11-10T19:59:33.146Z,300.23
2018-11-10T20:02:00.562Z,299.33
2018-11-10T20:04:27.965Z,359.50
2018-11-10T20:07:04.228Z,526.33
2018-11-10T20:09:31.638Z,297.53
2018-11-10T20:11:59.100Z,290.33
2018-11-10T20:14:26.532Z,295.73
2018-11-10T20:16:53.918Z,312.43
2018-11-10T20:19:21.259Z,344.90
2018-11-10T20:21:48.639Z,489.33
2018-11-10T20:24:16.025Z,445.63
2018-11-10T20:26:43.371Z,504.13
2018-11-10T20:29:10.692Z,322.60
2018-11-10T20:31:38.356Z,320.07
2018-11-10T20:34:05.709Z,313.27
2018-11-10T20:36:33.090Z,300.53
2018-11-10T20:39:00.499Z,301.93
2018-11-10T20:41:34.535Z,302.27
2018-11-10T20:44:03.434Z,305.93
2018-11-10T20:46:30.871Z,289.17
2018-11-10T20:48:58.202Z,316.13
2018-11-10T20:51:25.561Z,318.70
2018-11-10T20:53:53.159Z,303.50
2018-11-10T20:56:20.565Z,305.80
2018-11-10T20:58:47.921Z,306.83
2018-11-10T21:01:15.338Z,299.03
2018-11-10T21:03:42.728Z,314.77
2018-11-10T21:06:10.200Z,297.37
2018-11-10T21:08:37.824Z,293.73
2018-11-10T21:11:05.295Z,290.07
2018-11-10T21:13:32.783Z,421.33
2018-11-10T21:16:00.179Z,303.87
2018-11-10T21:18:27.571Z,306.43
2018-11-10T21:20:55.063Z,293.13
2018-11-10T21:23:22.811Z,294.77
2018-11-10T21:25:50.264Z,301.43
2018-11-10T21:28:17.609Z,288.67
2018-11-10T21:30:45.092Z,296.17
2018-11-10T21:33:12.513Z,303.77
2018-11-10T21:35:40.025Z,287.20
2018-11-10T21:38:07.475Z,285.70
2018-11-10T21:40:34.875Z,288.60
2018-11-10T21:43:02.308Z,296.13
2018-11-10T21:45:29.759Z,278.03
2018-11-10T21:47:57.217Z,302.50
2018-11-10T21:50:24.572Z,413.60
2018-11-10T21:52:52.205Z,300.87
2018-11-10T21:55:19.834Z,276.13
2018-11-10T21:57:47.759Z,276.57
2018-11-10T22:00:16.589Z,275.40
2018-11-10T22:02:44.467Z,293.33
2018-11-10T22:05:12.081Z,277.13
2018-11-10T22:07:39.614Z,277.23
2018-11-10T22:10:09.720Z,276.67
2018-11-10T22:12:37.208Z,278.50
2018-11-10T22:15:06.410Z,284.40
2018-11-10T22:17:33.822Z,279.03
2018-11-10T22:20:01.191Z,271.70
2018-11-10T22:22:28.710Z,267.37
2018-11-10T22:24:56.041Z,277.47
2018-11-10T22:27:24.827Z,274.37
2018-11-10T22:29:52.215Z,286.43
2018-11-10T22:32:19.583Z,268.00
2018-11-10T22:34:46.958Z,271.10
2018-11-10T22:37:14.303Z,288.63
2018-11-10T22:39:41.947Z,290.27
2018-11-10T22:42:09.298Z,292.03
2018-11-10T22:44:36.646Z,282.53
2018-11-10T22:47:04.442Z,291.83
2018-11-10T22:49:35.749Z,282.10
2018-11-10T22:52:03.216Z,286.20
2018-11-10T22:54:30.639Z,283.87
2018-11-10T22:56:58.101Z,290.30
2018-11-10T22:59:25.402Z,296.00
2018-11-10T23:01:52.754Z,296.57
2018-11-10T23:04:20.524Z,295.23
2018-11-10T23:06:47.880Z,297.13
2018-11-10T23:09:15.248Z,294.83
2018-11-10T23:11:42.735Z,291.40
2018-11-10T23:14:10.090Z,291.93
2018-11-10T23:16:37.690Z,277.40
2018-11-10T23:19:05.270Z,288.57
2018-11-10T23:21:32.780Z,294.23
2018-11-10T23:24:00.164Z,365.00
2018-11-10T23:26:27.745Z,273.23
2018-11-10T23:28:55.216Z,302.40
2018-11-10T23:31:22.620Z,337.53
2018-11-10T23:33:49.976Z,289.00
2018-11-10T23:36:17.335Z,281.87
2018-11-10T23:38:44.715Z,287.90
2018-11-10T23:41:12.134Z,272.00
2018-11-10T23:43:39.488Z,280.53
2018-11-10T23:46:06.854Z,264.33
2018-11-10T23:48:34.234Z,270.40
2018-11-10T23:51:02.825Z,272.93
2018-11-10T23:53:36.653Z,271.03
2018-11-10T23:56:04.079Z,261.37
2018-11-10T23:58:31.406Z,263.50
